createdAt,value
2023-01-23T00:01:26.979Z,28.48
2023-01-23T00:03:55.652Z,29.05
2023-01-23T00:06:23.088Z,29.85
2023-01-23T00:08:49.773Z,33.60
2023-01-23T00:11:25.892Z,28.98
2023-01-23T00:13:56.090Z,29.25
2023-01-23T00:16:25.129Z,38.22
2023-01-23T00:18:52.456Z,31.85
2023-01-23T00:21:21.823Z,30.98
2023-01-23T00:23:50.616Z,36.33
2023-01-23T00:26:19.883Z,28.77
2023-01-23T00:28:52.054Z,29.48
2023-01-23T00:31:25.217Z,33.00
2023-01-23T00:33:57.674Z,25.08
2023-01-23T00:36:24.909Z,28.55
2023-01-23T00:38:51.408Z,30.23
2023-01-23T00:41:17.921Z,24.25
2023-01-23T00:43:45.077Z,26.77
2023-01-23T00:46:11.638Z,28.65
2023-01-23T00:48:40.472Z,25.35
2023-01-23T00:51:06.981Z,29.27
2023-01-23T00:53:33.527Z,29.60
2023-01-23T00:56:02.875Z,24.85
2023-01-23T00:58:29.450Z,25.02
2023-01-23T01:00:55.918Z,26.73
2023-01-23T01:03:25.161Z,26.10
2023-01-23T01:05:55.046Z,31.23
2023-01-23T01:08:21.639Z,26.00
2023-01-23T01:10:48.077Z,32.85
2023-01-23T01:13:16.868Z,33.60
2023-01-23T01:15:43.430Z,35.10
2023-01-23T01:18:10.006Z,31.20
2023-01-23T01:20:36.658Z,24.70
2023-01-23T01:23:03.181Z,31.42
2023-01-23T01:25:30.404Z,27.90
2023-01-23T01:27:56.884Z,20.73
2023-01-23T01:30:44.073Z,20.48
2023-01-23T01:33:11.174Z,24.05
2023-01-23T01:35:41.084Z,23.02
2023-01-23T01:38:08.843Z,25.83
2023-01-23T01:40:37.586Z,21.77
2023-01-23T01:43:08.014Z,26.73
2023-01-23T01:46:14.422Z,24.27
2023-01-23T01:49:02.142Z,27.95
2023-01-23T01:52:00.672Z,22.85
2023-01-23T01:54:36.426Z,26.80
2023-01-23T01:57:08.882Z,24.13
2023-01-23T01:59:40.823Z,24.27
2023-01-23T02:04:45.028Z,23.13
2023-01-23T02:07:24.898Z,27.20
2023-01-23T02:09:52.699Z,26.13
2023-01-23T02:12:22.010Z,21.95
2023-01-23T02:14:48.646Z,24.60
2023-01-23T02:17:15.181Z,26.08
2023-01-23T02:20:09.630Z,23.13
2023-01-23T02:22:55.968Z,32.50
2023-01-23T02:25:38.062Z,22.88
2023-01-23T02:30:39.964Z,32.75
2023-01-23T02:33:10.478Z,33.47
2023-01-23T02:35:37.362Z,21.23
2023-01-23T02:38:06.624Z,22.83
2023-01-23T02:40:38.488Z,28.17
2023-01-23T02:45:37.237Z,20.38
2023-01-23T02:48:06.093Z,22.30
2023-01-23T02:50:35.353Z,21.60
2023-01-23T02:53:01.870Z,23.38
2023-01-23T02:55:34.836Z,26.13
2023-01-23T02:58:20.048Z,27.58
2023-01-23T03:00:47.537Z,24.25
2023-01-23T03:03:15.970Z,20.02
2023-01-23T03:05:42.821Z,28.67
2023-01-23T03:08:09.354Z,21.80
2023-01-23T03:10:36.065Z,28.02
2023-01-23T03:13:04.556Z,24.05
2023-01-23T03:15:31.619Z,23.98
2023-01-23T03:17:58.147Z,24.95
2023-01-23T03:20:26.863Z,23.92
2023-01-23T03:22:54.390Z,23.05
2023-01-23T03:25:20.987Z,34.50
2023-01-23T03:27:48.396Z,30.63
2023-01-23T03:30:16.902Z,29.83
2023-01-23T03:32:44.644Z,33.75
2023-01-23T03:35:16.589Z,36.85
2023-01-23T03:37:44.354Z,27.40
2023-01-23T03:40:41.202Z,28.42
2023-01-23T03:43:08.190Z,28.25
2023-01-23T03:45:34.961Z,33.58
2023-01-23T03:48:01.680Z,28.90
2023-01-23T03:50:28.148Z,29.77
2023-01-23T03:52:54.741Z,28.55
2023-01-23T03:55:21.364Z,31.65
2023-01-23T03:57:48.231Z,32.95
2023-01-23T04:00:18.388Z,37.72
2023-01-23T04:02:45.222Z,33.38
2023-01-23T04:05:11.728Z,30.42
2023-01-23T04:07:38.224Z,28.92
2023-01-23T04:10:05.071Z,32.33
2023-01-23T04:12:31.567Z,38.22
2023-01-23T04:14:58.046Z,30.52
2023-01-23T04:17:24.481Z,37.33
2023-01-23T04:19:51.002Z,30.58
2023-01-23T04:22:17.524Z,34.10
2023-01-23T04:24:44.007Z,31.92
2023-01-23T04:27:10.519Z,33.40
2023-01-23T04:29:37.085Z,32.47
2023-01-23T04:32:04.666Z,29.77
2023-01-23T04:34:31.283Z,31.92
2023-01-23T04:36:57.801Z,34.50
2023-01-23T04:39:24.285Z,32.03
2023-01-23T04:41:50.796Z,31.88
2023-01-23T04:44:20.293Z,33.40
2023-01-23T04:46:55.474Z,29.85
2023-01-23T04:49:23.407Z,32.80
2023-01-23T04:51:51.048Z,31.58
2023-01-23T04:54:18.794Z,35.70
2023-01-23T04:56:45.677Z,37.20
2023-01-23T04:59:12.879Z,31.63
2023-01-23T05:01:39.855Z,37.90
2023-01-23T05:04:06.344Z,37.92
2023-01-23T05:06:32.907Z,33.63
2023-01-23T05:08:59.364Z,30.80
2023-01-23T05:11:25.933Z,35.55
2023-01-23T05:13:52.471Z,34.90
2023-01-23T05:16:19.005Z,31.30
2023-01-23T05:18:45.436Z,29.13
2023-01-23T05:21:12.021Z,31.92
2023-01-23T05:23:38.587Z,30.55
2023-01-23T05:26:05.158Z,33.22
2023-01-23T05:28:31.734Z,43.42
2023-01-23T05:30:58.374Z,35.65
2023-01-23T05:33:24.955Z,43.40
2023-01-23T05:35:51.391Z,43.90
2023-01-23T05:38:18.010Z,36.38
2023-01-23T05:40:44.467Z,48.10
2023-01-23T05:43:15.165Z,32.90
2023-01-23T05:45:41.677Z,41.15
2023-01-23T05:48:08.416Z,46.60
2023-01-23T05:50:34.860Z,32.45
2023-01-23T05:53:01.375Z,44.30
2023-01-23T05:55:27.808Z,34.55
2023-01-23T05:57:54.312Z,37.85
2023-01-23T06:00:21.849Z,35.33
2023-01-23T06:02:48.673Z,50.08
2023-01-23T06:05:15.438Z,47.00
2023-01-23T06:07:41.895Z,33.22
2023-01-23T06:10:09.941Z,35.83
2023-01-23T06:12:36.705Z,33.78
2023-01-23T06:15:03.500Z,37.78
2023-01-23T06:17:30.018Z,32.65
2023-01-23T06:19:56.561Z,32.53
2023-01-23T06:22:23.013Z,40.50
2023-01-23T06:24:49.643Z,37.58
2023-01-23T06:27:16.198Z,35.83
2023-01-23T06:29:42.650Z,30.90
2023-01-23T06:32:10.169Z,30.45
2023-01-23T06:34:36.714Z,31.17
2023-01-23T06:37:03.592Z,34.28
2023-01-23T06:39:30.248Z,30.13
2023-01-23T06:41:57.410Z,26.33
2023-01-23T06:44:24.180Z,29.95
2023-01-23T06:46:53.308Z,31.88
2023-01-23T06:49:19.779Z,31.70
2023-01-23T06:51:46.275Z,41.78
2023-01-23T06:54:12.789Z,31.52
2023-01-23T06:56:39.329Z,33.92
2023-01-23T06:59:06.320Z,33.55
2023-01-23T07:01:35.504Z,34.90
2023-01-23T07:04:02.070Z,41.05
2023-01-23T07:06:30.285Z,33.92
2023-01-23T07:08:56.885Z,38.08
2023-01-23T07:11:24.393Z,44.80
2023-01-23T07:13:50.901Z,34.28
2023-01-23T07:16:17.410Z,33.88
2023-01-23T07:18:43.936Z,47.28
2023-01-23T07:21:10.719Z,35.95
2023-01-23T07:23:37.290Z,40.55
2023-01-23T07:26:09.748Z,35.35
2023-01-23T07:28:39.611Z,36.28
2023-01-23T07:31:06.568Z,31.08
2023-01-23T07:33:33.325Z,47.67
2023-01-23T07:35:59.875Z,42.75
2023-01-23T07:38:26.391Z,32.45
2023-01-23T07:40:52.989Z,33.28
2023-01-23T07:43:19.573Z,42.33
2023-01-23T07:45:46.059Z,36.50
2023-01-23T07:48:12.502Z,33.78
2023-01-23T07:50:39.085Z,39.22
2023-01-23T07:53:06.472Z,35.70
2023-01-23T07:55:33.145Z,39.45
2023-01-23T07:58:03.276Z,47.03
2023-01-23T08:00:30.383Z,31.77
2023-01-23T08:02:57.272Z,40.83
2023-01-23T08:05:24.283Z,36.33
2023-01-23T08:07:53.760Z,33.17
2023-01-23T08:10:24.446Z,46.55
2023-01-23T08:12:50.877Z,38.33
2023-01-23T08:15:17.693Z,39.97
2023-01-23T08:17:44.188Z,42.30
2023-01-23T08:20:11.104Z,39.97
2023-01-23T08:22:40.732Z,37.88
2023-01-23T08:25:09.697Z,31.65
2023-01-23T08:27:36.929Z,34.67
2023-01-23T08:30:05.590Z,31.73
2023-01-23T08:32:32.359Z,30.95
2023-01-23T08:34:59.665Z,31.70
2023-01-23T08:37:26.157Z,31.80
2023-01-23T08:39:52.709Z,28.40
2023-01-23T08:42:19.246Z,32.00
2023-01-23T08:44:45.692Z,42.38
2023-01-23T08:47:12.218Z,33.90
2023-01-23T08:49:41.558Z,36.53
2023-01-23T08:52:08.101Z,35.70
2023-01-23T08:54:34.696Z,33.20
2023-01-23T08:57:01.596Z,33.13
2023-01-23T08:59:28.666Z,31.48
2023-01-23T09:01:55.176Z,42.92
2023-01-23T09:04:21.703Z,30.60
2023-01-23T09:06:48.157Z,43.70
2023-01-23T09:09:14.667Z,31.00
2023-01-23T09:11:41.575Z,42.53
2023-01-23T09:14:08.048Z,35.17
2023-01-23T09:16:34.579Z,42.15
2023-01-23T09:19:01.072Z,37.17
2023-01-23T09:21:27.621Z,33.67
2023-01-23T09:23:54.160Z,37.22
2023-01-23T09:26:20.654Z,38.67
2023-01-23T09:28:47.305Z,44.20
2023-01-23T09:31:14.286Z,36.22
2023-01-23T09:33:41.520Z,48.53
2023-01-23T09:36:08.802Z,40.05
2023-01-23T09:38:35.451Z,41.45
2023-01-23T09:41:09.750Z,35.22
2023-01-23T09:43:51.899Z,37.03
2023-01-23T09:46:49.116Z,30.75
2023-01-23T09:49:38.710Z,36.38
2023-01-23T09:52:27.392Z,30.95
2023-01-23T09:55:01.333Z,28.27
2023-01-23T09:57:42.692Z,33.75
2023-01-23T10:00:30.045Z,37.10
2023-01-23T10:02:57.488Z,31.42
2023-01-23T10:06:02.331Z,41.88
2023-01-23T10:08:44.311Z,30.45
2023-01-23T10:13:54.576Z,30.05
2023-01-23T10:16:59.636Z,33.17
2023-01-23T10:19:44.592Z,30.90
2023-01-23T10:22:26.118Z,28.88
2023-01-23T10:24:55.899Z,25.48
2023-01-23T10:27:34.583Z,38.30
2023-01-23T10:30:30.432Z,37.28
2023-01-23T10:33:09.086Z,30.75
2023-01-23T10:35:53.549Z,30.55
2023-01-23T10:38:40.793Z,29.83
2023-01-23T10:41:23.448Z,36.33
2023-01-23T10:43:53.743Z,29.63
2023-01-23T10:46:38.078Z,32.97
2023-01-23T10:49:04.713Z,24.85
2023-01-23T10:51:37.234Z,29.65
2023-01-23T10:54:07.141Z,29.77
2023-01-23T10:56:37.437Z,30.50
2023-01-23T10:59:05.792Z,26.73
2023-01-23T11:01:37.423Z,32.38
2023-01-23T11:04:19.719Z,32.42
2023-01-23T11:07:05.341Z,27.05
2023-01-23T11:09:32.081Z,26.45
2023-01-23T11:12:05.714Z,27.55
2023-01-23T11:14:33.232Z,28.23
2023-01-23T11:17:13.933Z,27.88
2023-01-23T11:19:42.372Z,25.63
2023-01-23T11:22:29.181Z,28.33
2023-01-23T11:24:56.063Z,28.33
2023-01-23T11:27:27.959Z,29.55
2023-01-23T11:32:50.050Z,24.70
2023-01-23T11:35:23.924Z,27.00
2023-01-23T11:37:51.220Z,26.50
2023-01-23T11:40:22.423Z,27.77
2023-01-23T11:42:49.249Z,27.25
2023-01-23T11:45:34.524Z,28.95
2023-01-23T11:48:21.877Z,29.40
2023-01-23T11:50:59.723Z,28.02
2023-01-23T11:53:43.267Z,27.70
2023-01-23T11:56:26.805Z,26.73
2023-01-23T11:59:14.275Z,28.35
2023-01-23T12:02:03.866Z,27.02
2023-01-23T12:04:52.119Z,28.75
2023-01-23T12:07:21.338Z,25.98
2023-01-23T12:10:08.002Z,29.55
2023-01-23T12:13:11.795Z,26.30
2023-01-23T12:15:46.783Z,27.08
2023-01-23T12:18:57.647Z,25.35
2023-01-23T12:21:45.419Z,26.60
2023-01-23T12:24:28.262Z,27.58
2023-01-23T12:27:15.915Z,28.63
2023-01-23T12:30:02.651Z,29.65
2023-01-23T12:32:48.618Z,32.33
2023-01-23T12:35:15.038Z,28.23
2023-01-23T12:37:58.943Z,34.25
2023-01-23T12:40:30.867Z,34.95
2023-01-23T12:45:27.032Z,26.92
2023-01-23T12:48:15.727Z,35.25
2023-01-23T12:51:05.634Z,31.90
2023-01-23T12:53:37.379Z,37.13
2023-01-23T12:56:35.212Z,29.85
2023-01-23T12:59:39.171Z,29.90
2023-01-23T13:02:29.194Z,31.02
2023-01-23T13:05:10.913Z,33.47
2023-01-23T13:08:10.073Z,36.08
2023-01-23T13:11:28.398Z,33.38
2023-01-23T13:13:55.085Z,36.72
2023-01-23T13:16:27.758Z,33.67
2023-01-23T13:19:12.959Z,37.40
2023-01-23T13:21:58.513Z,37.20
2023-01-23T13:24:51.373Z,36.78
2023-01-23T13:27:58.708Z,36.15
2023-01-23T13:30:35.984Z,37.60
2023-01-23T13:33:11.648Z,33.55
2023-01-23T13:35:44.782Z,42.40
2023-01-23T13:38:25.543Z,38.20
2023-01-23T13:41:14.505Z,34.90
2023-01-23T13:43:50.124Z,35.13
2023-01-23T14:21:52.454Z,37.15
2023-01-23T14:24:29.314Z,33.08
2023-01-23T14:27:09.563Z,45.25
2023-01-23T14:29:36.898Z,38.20
2023-01-23T14:32:03.614Z,38.20
2023-01-23T14:34:30.083Z,46.33
2023-01-23T14:37:15.779Z,39.83
2023-01-23T14:39:53.173Z,37.97
2023-01-23T14:42:31.104Z,39.85
2023-01-23T14:45:01.919Z,32.35
2023-01-23T14:47:42.222Z,35.33
2023-01-23T14:50:11.422Z,43.08
2023-01-23T14:52:37.999Z,39.05
2023-01-23T14:55:29.590Z,45.72
2023-01-23T14:57:58.850Z,36.55
2023-01-23T15:00:26.842Z,37.53
2023-01-23T15:02:54.583Z,39.80
2023-01-23T15:05:25.116Z,38.10
2023-01-23T15:07:57.789Z,38.45
2023-01-23T15:10:28.430Z,38.42
2023-01-23T15:13:09.879Z,56.05
2023-01-23T15:15:36.658Z,45.40
2023-01-23T15:18:16.831Z,37.15
2023-01-23T15:20:53.347Z,38.90
2023-01-23T15:23:28.281Z,40.50
2023-01-23T15:26:36.424Z,53.88
2023-01-23T15:29:10.625Z,37.55
2023-01-23T15:31:40.337Z,38.13
2023-01-23T15:34:15.901Z,46.33
2023-01-23T15:36:52.432Z,38.97
2023-01-23T15:39:28.189Z,49.10
2023-01-23T15:41:59.738Z,39.35
2023-01-23T15:44:29.049Z,46.92
2023-01-23T15:46:56.658Z,33.60
2023-01-23T15:49:26.356Z,36.45
2023-01-23T15:51:56.418Z,33.03
2023-01-23T15:54:33.369Z,41.45
2023-01-23T15:57:07.572Z,31.20
2023-01-23T15:59:36.108Z,31.63
2023-01-23T16:02:02.769Z,32.58
2023-01-23T16:04:29.229Z,31.63
2023-01-23T16:06:56.473Z,31.38
2023-01-23T16:09:35.655Z,29.08
2023-01-23T16:12:03.018Z,27.25
2023-01-23T16:14:29.473Z,27.83
2023-01-23T16:16:58.252Z,24.75
2023-01-23T16:19:31.149Z,28.33
2023-01-23T16:22:04.519Z,26.77
2023-01-23T16:24:36.903Z,30.58
2023-01-23T16:27:04.034Z,30.90
2023-01-23T16:29:33.820Z,38.58
2023-01-23T16:32:05.437Z,33.42
2023-01-23T16:34:32.282Z,31.83
2023-01-23T16:37:00.929Z,33.92
2023-01-23T16:39:31.117Z,37.03
2023-01-23T16:41:58.009Z,39.83
2023-01-23T16:44:26.234Z,36.03
2023-01-23T16:46:53.619Z,42.63
2023-01-23T16:49:21.043Z,44.50
2023-01-23T16:51:59.909Z,34.03
2023-01-23T16:54:26.486Z,41.03
2023-01-23T16:56:55.309Z,43.40
2023-01-23T16:59:35.584Z,37.70
2023-01-23T17:02:14.327Z,37.80
2023-01-23T17:04:40.883Z,39.95
2023-01-23T17:07:14.214Z,37.13
2023-01-23T17:09:40.662Z,39.47
2023-01-23T17:12:29.730Z,53.35
2023-01-23T17:14:57.087Z,36.97
2023-01-23T17:17:34.104Z,43.83
2023-01-23T17:20:08.322Z,38.13
2023-01-23T17:22:39.947Z,38.28
2023-01-23T17:25:22.766Z,40.10
2023-01-23T17:28:06.965Z,37.35
2023-01-23T17:30:36.830Z,35.35
2023-01-23T17:33:03.862Z,41.08
2023-01-23T17:35:36.285Z,36.88
2023-01-23T17:38:03.873Z,47.92
2023-01-23T17:40:30.817Z,39.58
2023-01-23T17:42:57.666Z,49.80
2023-01-23T17:45:25.270Z,39.30
2023-01-23T17:47:54.869Z,40.20
2023-01-23T17:50:25.995Z,39.63
2023-01-23T17:52:56.662Z,38.92
2023-01-23T17:55:28.309Z,37.28
2023-01-23T17:57:54.956Z,42.65
2023-01-23T18:00:22.111Z,37.78
2023-01-23T18:02:56.156Z,46.13
2023-01-23T18:05:22.984Z,36.53
2023-01-23T18:07:54.001Z,38.40
2023-01-23T18:10:22.151Z,47.43
2023-01-23T18:13:10.446Z,54.70
2023-01-23T18:15:43.308Z,42.53
2023-01-23T18:18:39.009Z,36.00
2023-01-23T18:21:07.876Z,34.67
2023-01-23T18:23:37.505Z,46.53
2023-01-23T18:26:32.440Z,45.60
2023-01-23T18:29:17.762Z,37.78
2023-01-23T18:32:18.916Z,50.53
2023-01-23T18:34:58.463Z,40.67
2023-01-23T18:37:39.752Z,54.40
2023-01-23T18:40:12.639Z,39.88
2023-01-23T18:43:09.031Z,46.60
2023-01-23T18:45:35.730Z,41.88
2023-01-23T18:48:02.609Z,49.65
2023-01-23T18:50:29.383Z,57.55
2023-01-23T18:53:28.908Z,41.03
2023-01-23T18:56:14.334Z,54.22
2023-01-23T18:59:11.135Z,54.10
2023-01-23T19:01:41.482Z,39.03
2023-01-23T19:04:15.263Z,39.20
2023-01-23T19:06:44.697Z,47.22
2023-01-23T19:09:19.180Z,43.17
2023-01-23T19:12:07.619Z,42.15
2023-01-23T19:14:48.167Z,57.60
2023-01-23T19:17:51.569Z,43.50
2023-01-23T19:20:27.315Z,53.08
2023-01-23T19:23:02.831Z,40.58
2023-01-23T19:25:29.796Z,40.92
2023-01-23T19:27:58.816Z,48.45
2023-01-23T19:30:26.541Z,51.72
2023-01-23T19:32:53.268Z,51.90
2023-01-23T19:35:20.469Z,50.28
2023-01-23T19:37:46.955Z,43.97
2023-01-23T19:40:15.745Z,39.30
2023-01-23T19:42:54.313Z,54.40
2023-01-23T19:45:28.237Z,53.45
2023-01-23T19:47:54.813Z,43.88
2023-01-23T19:50:22.194Z,43.67
2023-01-23T19:52:50.135Z,45.53
2023-01-23T19:55:24.966Z,57.17
2023-01-23T19:57:52.032Z,48.63
2023-01-23T20:00:19.223Z,43.97
2023-01-23T20:02:45.794Z,44.78
2023-01-23T20:05:12.932Z,49.92
2023-01-23T20:07:39.416Z,43.05
2023-01-23T20:10:06.640Z,44.17
2023-01-23T20:12:40.952Z,49.75
2023-01-23T20:15:11.431Z,66.97
2023-01-23T20:17:38.338Z,55.47
2023-01-23T20:20:08.647Z,58.63
2023-01-23T20:22:35.914Z,47.67
2023-01-23T20:25:02.460Z,41.63
2023-01-23T20:27:28.963Z,42.08
2023-01-23T20:29:55.464Z,61.92
2023-01-23T20:32:22.075Z,54.70
2023-01-23T20:34:48.583Z,44.65
2023-01-23T20:37:15.067Z,49.67
2023-01-23T20:39:41.700Z,56.30
2023-01-23T20:42:11.479Z,46.85
2023-01-23T20:44:38.051Z,49.00
2023-01-23T20:47:07.523Z,66.50
2023-01-23T20:49:34.043Z,53.17
2023-01-23T20:52:19.650Z,41.90
2023-01-23T20:54:47.252Z,47.70
2023-01-23T20:57:14.837Z,61.85
2023-01-23T20:59:45.854Z,49.25
2023-01-23T21:02:27.754Z,46.80
2023-01-23T21:04:54.349Z,71.57
2023-01-23T21:07:22.437Z,48.30
2023-01-23T21:09:48.986Z,58.17
2023-01-23T21:12:15.462Z,48.63
2023-01-23T21:14:41.937Z,46.40
2023-01-23T21:17:09.647Z,52.25
2023-01-23T21:19:38.916Z,59.70
2023-01-23T21:22:06.846Z,59.20
2023-01-23T21:24:34.463Z,48.95
2023-01-23T21:27:05.657Z,48.40
2023-01-23T21:29:32.973Z,48.87
2023-01-23T21:31:59.628Z,49.58
2023-01-23T21:34:26.587Z,47.75
2023-01-23T21:36:53.282Z,62.55
2023-01-23T21:39:23.349Z,45.63
2023-01-23T21:41:53.370Z,51.13
2023-01-23T21:44:22.525Z,47.42
2023-01-23T21:46:49.343Z,48.42
2023-01-23T21:49:22.265Z,49.95
2023-01-23T21:51:48.827Z,60.95
2023-01-23T21:54:15.357Z,62.17
2023-01-23T21:56:41.810Z,67.93
2023-01-23T21:59:08.444Z,44.42
2023-01-23T22:01:44.604Z,48.88
2023-01-23T22:04:15.800Z,63.45
2023-01-23T22:06:43.999Z,46.75
2023-01-23T22:09:15.343Z,61.40
2023-01-23T22:11:41.848Z,48.95
2023-01-23T22:14:08.512Z,57.50
2023-01-23T22:16:51.114Z,48.75
2023-01-23T22:19:22.543Z,51.20
2023-01-23T22:21:50.944Z,49.08
2023-01-23T22:24:20.876Z,50.10
2023-01-23T22:26:47.401Z,53.25
2023-01-23T22:29:17.482Z,43.72
2023-01-23T22:31:44.175Z,51.83
2023-01-23T22:34:14.144Z,67.47
2023-01-23T22:36:40.590Z,61.03
2023-01-23T22:39:07.102Z,48.55
2023-01-23T22:41:33.625Z,50.53
2023-01-23T22:44:01.145Z,61.38
2023-01-23T22:46:33.449Z,53.80
2023-01-23T22:49:03.005Z,49.33
2023-01-23T22:51:32.307Z,56.28
2023-01-23T22:53:58.978Z,56.65
2023-01-23T22:56:27.307Z,51.47
2023-01-23T22:58:55.385Z,52.85
2023-01-23T23:01:23.558Z,74.15
2023-01-23T23:03:55.461Z,53.63
2023-01-23T23:08:50.074Z,47.08
2023-01-23T23:11:21.870Z,47.45
2023-01-23T23:13:49.186Z,59.85
2023-01-23T23:16:18.212Z,63.45
2023-01-23T23:18:46.701Z,47.50
2023-01-23T23:21:15.206Z,50.75
2023-01-23T23:23:42.120Z,57.90
2023-01-23T23:26:10.311Z,50.53
2023-01-23T23:28:38.251Z,45.92
2023-01-23T23:31:09.189Z,58.08
2023-01-23T23:33:38.262Z,47.50
2023-01-23T23:36:05.739Z,46.20
2023-01-23T23:38:33.386Z,57.42
2023-01-23T23:41:06.045Z,58.67
2023-01-23T23:43:33.114Z,44.67
2023-01-23T23:46:05.287Z,46.95
2023-01-23T23:48:33.289Z,45.05
2023-01-23T23:51:06.108Z,46.17
2023-01-23T23:53:33.280Z,46.35
2023-01-23T23:55:59.745Z,50.20
2023-01-23T23:58:26.493Z,53.40
